Archival Weather

Barra Do Garcas

Barra Do Garcas, Brazil (SBBW)

Report from: Saturday, December 2, 2023 10:00 PM -03
Current time: Wednesday, April 24, 2024 4:44 PM -03

Current weather – Weather history – Daily summaries
Weather forecast

Temperature27.0°C (80.6°F)
Heat index30.1°C (86.2°F)
Dew point24.0°C (75.2°F)
Winds Calm
Clouds Sky clear
Altimeter29.88 in.Hg (1012 mB)
Relative humidity84 %
Density altitude1,825 ft. (556 m)
Remarks Ceiling and visibility OK
Flight conditions Visual Meteorological Conditions
Raw dataSBBW 030100Z 00000KT CAVOK 27/24 Q1012
An error has occurred. This application may no longer respond until reloaded. Reload 🗙